createdAt,value
2022-07-26T00:00:39.047Z,1013.03
2022-07-26T00:05:40.214Z,1013.14
2022-07-26T00:10:41.329Z,1012.78
2022-07-26T00:15:43.463Z,1012.72
2022-07-26T00:20:42.573Z,1012.76
2022-07-26T00:25:44.678Z,1012.92
2022-07-26T00:30:43.923Z,1013.06
2022-07-26T00:35:45.011Z,1013.24
2022-07-26T00:40:47.161Z,1013.20
2022-07-26T00:45:46.351Z,1013.24
2022-07-26T00:50:47.450Z,1013.46
2022-07-26T00:55:48.588Z,1013.48
2022-07-26T01:00:49.853Z,1013.63
2022-07-26T01:05:51.037Z,1013.56
2022-07-26T01:10:53.216Z,1013.92
2022-07-26T01:15:52.400Z,1013.81
2022-07-26T01:20:54.501Z,1013.79
2022-07-26T01:25:54.601Z,1013.69
2022-07-26T01:30:53.645Z,1013.62
2022-07-26T01:35:54.737Z,1013.93
2022-07-26T01:40:56.840Z,1014.32
2022-07-26T01:45:57.013Z,1014.32
2022-07-26T01:50:57.207Z,1014.40
2022-07-26T01:55:56.310Z,1014.09
2022-07-26T02:00:58.420Z,1014.29
2022-07-26T02:05:57.551Z,1014.23
2022-07-26T02:10:59.692Z,1014.29
2022-07-26T02:15:58.915Z,1014.54
2022-07-26T02:21:00.077Z,1014.68
2022-07-26T02:26:01.175Z,1014.71
2022-07-26T02:31:03.344Z,1014.58
2022-07-26T02:36:03.429Z,1014.66
2022-07-26T02:41:02.579Z,1014.60
2022-07-26T02:46:04.746Z,1014.66
2022-07-26T02:51:04.887Z,1014.64
2022-07-26T02:56:05.014Z,1014.61
2022-07-26T03:01:04.148Z,1014.63
2022-07-26T03:06:05.313Z,1014.63
2022-07-26T03:11:10.340Z,1014.55
2022-07-26T03:16:06.486Z,1014.59
2022-07-26T03:21:08.693Z,1014.55
2022-07-26T03:26:07.826Z,1014.48
2022-07-26T03:31:09.028Z,1014.43
2022-07-26T03:36:11.471Z,1014.47
2022-07-26T03:41:13.668Z,1014.41
2022-07-26T03:46:11.073Z,1014.39
2022-07-26T03:51:12.226Z,1014.37
2022-07-26T03:56:13.362Z,1014.29
2022-07-26T04:01:14.773Z,1014.29
2022-07-26T04:06:15.882Z,1014.35
2022-07-26T04:11:18.009Z,1014.26
2022-07-26T04:16:17.139Z,1014.30
2022-07-26T04:21:18.263Z,1014.23
2022-07-26T04:26:19.383Z,1014.12
2022-07-26T04:31:20.598Z,1014.06
2022-07-26T04:36:22.721Z,1014.08
2022-07-26T04:41:22.831Z,1014.12
2022-07-26T04:46:22.057Z,1014.18
2022-07-26T04:51:23.218Z,1014.22
2022-07-26T04:56:25.462Z,1014.23
2022-07-26T05:01:24.655Z,1014.23
2022-07-26T05:06:25.798Z,1014.26
2022-07-26T05:11:26.966Z,1014.26
2022-07-26T05:16:28.194Z,1014.28
2022-07-26T05:21:29.285Z,1014.32
2022-07-26T05:26:31.432Z,1014.34
2022-07-26T05:31:30.631Z,1014.35
2022-07-26T05:36:32.744Z,1014.43
2022-07-26T05:41:31.891Z,1014.39
2022-07-26T05:46:33.059Z,1014.43
2022-07-26T05:51:35.200Z,1014.42
2022-07-26T05:56:34.305Z,1014.40
2022-07-26T06:01:35.418Z,1014.37
2022-07-26T06:06:35.169Z,1014.42
2022-07-26T06:11:38.302Z,1014.48
2022-07-26T06:16:38.497Z,1014.48
2022-07-26T06:21:38.623Z,1014.49
2022-07-26T06:26:37.722Z,1014.50
2022-07-26T06:31:38.908Z,1014.53
2022-07-26T06:36:40.011Z,1014.55
2022-07-26T06:41:41.186Z,1014.62
2022-07-26T06:46:44.326Z,1014.69
2022-07-26T06:51:43.110Z,1014.73
2022-07-26T06:56:46.234Z,1014.68
2022-07-26T07:01:51.426Z,1014.62
2022-07-26T07:06:47.424Z,1014.66
2022-07-26T07:11:48.889Z,1014.57
2022-07-26T07:16:47.845Z,1014.59
2022-07-26T07:21:47.024Z,1014.57
2022-07-26T07:26:48.223Z,1014.57
2022-07-26T07:31:53.412Z,1014.52
2022-07-26T07:36:49.642Z,1014.47
2022-07-26T07:41:51.785Z,1014.47
2022-07-26T07:46:50.894Z,1014.55
2022-07-26T07:51:52.023Z,1014.55
2022-07-26T07:56:53.149Z,1014.55
2022-07-26T08:01:55.268Z,1014.55
2022-07-26T08:06:54.531Z,1014.54
2022-07-26T08:11:55.802Z,1014.59
2022-07-26T08:16:56.537Z,1014.61
2022-07-26T08:21:55.621Z,1014.75
2022-07-26T08:26:56.353Z,1014.87
2022-07-26T08:31:57.537Z,1014.83
2022-07-26T08:37:15.806Z,1014.88
2022-07-26T08:41:58.763Z,1014.93
2022-07-26T08:47:00.023Z,1014.94
2022-07-26T08:52:02.153Z,1014.99
2022-07-26T08:57:05.348Z,1014.96
2022-07-26T09:02:03.459Z,1014.97
2022-07-26T09:07:03.618Z,1015.06
2022-07-26T09:12:03.760Z,1015.04
2022-07-26T09:17:04.095Z,1015.02
2022-07-26T09:22:06.034Z,1015.05
2022-07-26T09:27:03.294Z,1015.04
2022-07-26T09:32:04.640Z,1015.07
2022-07-26T09:37:11.364Z,1015.10
2022-07-26T09:42:26.732Z,1015.13
2022-07-26T09:47:06.843Z,1015.19
2022-07-26T09:52:06.046Z,1015.16
2022-07-26T09:57:06.285Z,1015.16
2022-07-26T10:02:09.457Z,1015.18
2022-07-26T10:07:10.711Z,1015.16
2022-07-26T10:12:09.843Z,1015.08
2022-07-26T10:17:09.996Z,1015.10
2022-07-26T10:22:10.535Z,1015.08
2022-07-26T10:27:11.670Z,1015.10
2022-07-26T10:32:13.787Z,1015.00
2022-07-26T10:37:12.899Z,1014.98
2022-07-26T10:42:14.025Z,1014.93
2022-07-26T10:47:15.168Z,1014.95
2022-07-26T10:52:16.356Z,1014.91
2022-07-26T10:57:18.538Z,1014.93
2022-07-26T11:02:17.772Z,1014.84
2022-07-26T11:07:19.939Z,1014.80
2022-07-26T11:12:20.103Z,1014.78
2022-07-26T11:17:19.274Z,1014.70
2022-07-26T11:22:20.499Z,1014.67
2022-07-26T11:27:21.693Z,1014.54
2022-07-26T11:32:23.907Z,1014.46
2022-07-26T11:37:24.244Z,1014.55
2022-07-26T11:42:23.386Z,1014.50
2022-07-26T11:47:26.257Z,1014.51
2022-07-26T11:52:25.995Z,1014.39
2022-07-26T11:57:28.117Z,1014.42
2022-07-26T12:02:27.261Z,1014.41
2022-07-26T12:07:28.420Z,1014.33
2022-07-26T12:12:29.521Z,1014.24
2022-07-26T12:17:35.086Z,1014.15
2022-07-26T12:22:30.693Z,1014.08
2022-07-26T12:27:31.834Z,1014.04
2022-07-26T12:32:33.943Z,1014.06
2022-07-26T12:37:40.323Z,1013.98
2022-07-26T12:42:34.624Z,1013.97
2022-07-26T12:47:34.855Z,1013.93
2022-07-26T12:52:34.980Z,1013.82
2022-07-26T12:57:34.189Z,1013.78
2022-07-26T13:02:34.055Z,1013.72
2022-07-26T13:07:36.150Z,1013.72
2022-07-26T13:12:35.382Z,1013.54
2022-07-26T13:17:36.578Z,1013.47
2022-07-26T13:22:37.740Z,1013.47
2022-07-26T13:27:40.317Z,1013.33
2022-07-26T13:32:39.889Z,1013.28
2022-07-26T13:37:41.121Z,1013.32
2022-07-26T13:42:42.268Z,1013.29
2022-07-26T13:47:43.372Z,1013.23
2022-07-26T13:52:44.580Z,1013.22
2022-07-26T13:57:56.208Z,1013.25
2022-07-26T14:02:45.833Z,1013.21
2022-07-26T14:07:47.053Z,1013.23
2022-07-26T14:12:48.250Z,1013.21
2022-07-26T14:17:49.438Z,1013.25
2022-07-26T14:22:50.632Z,1013.25
2022-07-26T14:27:51.830Z,1013.27
2022-07-26T14:32:54.008Z,1013.35
2022-07-26T14:37:53.321Z,1013.32
2022-07-26T14:42:54.540Z,1013.25
2022-07-26T14:47:56.747Z,1013.25
2022-07-26T14:52:56.859Z,1013.26
2022-07-26T14:57:56.092Z,1013.22
2022-07-26T15:02:57.306Z,1013.19
2022-07-26T15:08:01.611Z,1013.06
2022-07-26T15:12:59.534Z,1013.08
2022-07-26T15:17:58.697Z,1012.96
2022-07-26T15:22:59.962Z,1012.84
2022-07-26T15:28:03.072Z,1012.83
2022-07-26T15:33:02.239Z,1012.82
2022-07-26T15:38:03.444Z,1012.81
2022-07-26T15:43:04.709Z,1012.74
2022-07-26T15:48:14.927Z,1012.72
2022-07-26T15:53:05.306Z,1012.73
2022-07-26T15:58:06.488Z,1012.67
2022-07-26T16:03:07.591Z,1012.63
2022-07-26T16:08:08.797Z,1012.56
2022-07-26T16:13:09.992Z,1012.52
2022-07-26T16:18:12.217Z,1012.47
2022-07-26T16:23:11.363Z,1012.43
2022-07-26T16:28:12.496Z,1012.39
2022-07-26T16:33:13.624Z,1012.38
2022-07-26T16:38:14.756Z,1012.32
2022-07-26T16:43:19.878Z,1012.36
2022-07-26T16:48:18.011Z,1012.37
2022-07-26T16:53:17.126Z,1012.34
2022-07-26T16:58:19.255Z,1012.32
2022-07-26T17:03:18.378Z,1012.32
2022-07-26T17:08:20.485Z,1012.39
2022-07-26T17:13:19.604Z,1012.48
2022-07-26T17:18:20.712Z,1012.44
2022-07-26T17:23:21.828Z,1012.36
2022-07-26T17:28:23.971Z,1012.27
2022-07-26T17:33:24.143Z,1012.31
2022-07-26T17:38:23.294Z,1012.28
2022-07-26T17:43:24.535Z,1012.33
2022-07-26T17:48:24.516Z,1012.32
2022-07-26T17:53:34.028Z,1012.30
2022-07-26T17:58:26.672Z,1012.33
2022-07-26T18:03:26.837Z,1012.36
2022-07-26T18:08:27.205Z,1012.39
2022-07-26T18:13:26.422Z,1012.36
2022-07-26T18:18:27.593Z,1012.37
2022-07-26T18:23:28.727Z,1012.43
2022-07-26T18:28:29.849Z,1012.42
2022-07-26T18:33:31.697Z,1012.39
2022-07-26T18:38:30.976Z,1012.42
2022-07-26T18:43:33.132Z,1012.42
2022-07-26T18:48:32.292Z,1012.46
2022-07-26T18:53:31.814Z,1012.52
2022-07-26T18:58:33.919Z,1012.54
2022-07-26T19:03:36.094Z,1012.52
2022-07-26T19:08:33.217Z,1012.59
2022-07-26T19:13:35.368Z,1012.57
2022-07-26T19:18:34.517Z,1012.64
2022-07-26T19:23:37.673Z,1012.59
2022-07-26T19:28:37.006Z,1012.63
2022-07-26T19:33:38.165Z,1012.76
2022-07-26T19:38:40.317Z,1012.74
2022-07-26T19:43:40.467Z,1012.87
2022-07-26T19:48:40.674Z,1012.88
2022-07-26T19:53:39.838Z,1012.97
2022-07-26T19:58:41.005Z,1013.04
2022-07-26T20:03:43.172Z,1013.02
2022-07-26T20:08:42.318Z,1013.06
2022-07-26T20:13:46.441Z,1013.04
2022-07-26T20:18:43.548Z,1012.95
2022-07-26T20:23:45.672Z,1012.94
2022-07-26T20:28:44.819Z,1012.95
2022-07-26T20:33:46.938Z,1012.86
2022-07-26T20:38:51.120Z,1012.81
2022-07-26T20:43:47.006Z,1012.81
2022-07-26T20:48:48.056Z,1012.79
2022-07-26T20:53:48.201Z,1012.79
2022-07-26T20:58:48.298Z,1012.79
2022-07-26T21:03:48.431Z,1012.97
2022-07-26T21:08:47.629Z,1013.00
2022-07-26T21:13:48.746Z,1012.97
2022-07-26T21:18:52.677Z,1013.06
2022-07-26T21:23:52.362Z,1013.02
2022-07-26T21:28:51.465Z,1013.03
2022-07-26T21:33:52.582Z,1012.98
2022-07-26T21:38:53.786Z,1012.91
2022-07-26T21:43:55.937Z,1012.90
2022-07-26T21:48:55.087Z,1012.99
2022-07-26T21:53:56.205Z,1012.94
2022-07-26T21:58:59.369Z,1013.05
2022-07-26T22:03:57.496Z,1013.12
2022-07-26T22:09:04.583Z,1013.18
2022-07-26T22:14:00.713Z,1013.09
2022-07-26T22:18:58.855Z,1013.20
2022-07-26T22:23:59.466Z,1013.24
2022-07-26T22:29:02.648Z,1013.11
2022-07-26T22:34:01.776Z,1013.19
2022-07-26T22:39:02.935Z,1013.25
2022-07-26T22:44:04.057Z,1013.31
2022-07-26T22:49:05.211Z,1013.26
2022-07-26T22:54:05.146Z,1013.32
2022-07-26T22:59:07.266Z,1013.30
2022-07-26T23:04:06.494Z,1013.31
2022-07-26T23:09:07.014Z,1013.31
2022-07-26T23:14:08.125Z,1013.24
2022-07-26T23:19:10.577Z,1013.25
2022-07-26T23:24:09.815Z,1013.27
2022-07-26T23:29:12.327Z,1013.23
2022-07-26T23:34:12.678Z,1013.09
2022-07-26T23:39:12.171Z,1013.00
2022-07-26T23:44:11.487Z,1013.15
2022-07-26T23:49:13.052Z,1013.08
2022-07-26T23:54:12.467Z,1013.04
2022-07-26T23:59:14.020Z,1012.96
